createdAt,value
2022-07-29T00:01:01.882Z,95415.47
2022-07-29T00:03:28.356Z,95414.91
2022-07-29T00:05:54.912Z,95411.44
2022-07-29T00:08:21.630Z,95410.63
2022-07-29T00:10:49.585Z,95406.03
2022-07-29T00:13:16.164Z,95403.59
2022-07-29T00:15:42.704Z,95407.66
2022-07-29T00:18:09.208Z,95406.03
2022-07-29T00:20:35.802Z,95408.75
2022-07-29T00:23:02.305Z,95403.88
2022-07-29T00:25:28.831Z,95403.63
2022-07-29T00:27:55.409Z,95405.78
2022-07-29T00:30:21.977Z,95409.84
2022-07-29T00:32:48.537Z,95404.72
2022-07-29T00:35:15.058Z,95416.56
2022-07-29T00:37:41.694Z,95416.56
2022-07-29T00:40:09.155Z,95420.59
2022-07-29T00:42:51.488Z,95412.25
2022-07-29T00:45:19.198Z,95421.16
2022-07-29T00:47:46.244Z,95416.56
2022-07-29T00:50:14.412Z,95420.34
2022-07-29T00:52:42.856Z,95423.03
2022-07-29T00:55:12.897Z,95427.88
2022-07-29T00:57:40.860Z,95426.78
2022-07-29T01:00:11.695Z,95424.06
2022-07-29T01:02:38.644Z,95416.81
2022-07-29T01:05:06.766Z,95421.66
2022-07-29T01:07:36.982Z,95421.84
2022-07-29T01:10:09.651Z,95418.06
2022-07-29T01:12:38.684Z,95416.44
2022-07-29T01:15:08.008Z,95420.22
2022-07-29T01:17:37.645Z,95414.31
2022-07-29T01:20:31.542Z,95411.31
2022-07-29T01:23:16.448Z,95415.41
2022-07-29T01:26:13.822Z,95412.69
2022-07-29T01:29:35.801Z,95417.06
2022-07-29T01:32:20.263Z,95417.59
2022-07-29T01:34:54.445Z,95415.47
2022-07-29T01:37:27.812Z,95411.16
2022-07-29T01:39:59.697Z,95398.22
2022-07-29T01:42:42.862Z,95398.50
2022-07-29T01:45:15.512Z,95409.53
2022-07-29T01:47:55.113Z,95417.91
2022-07-29T01:50:32.103Z,95419.81
2022-07-29T01:53:02.855Z,95414.38
2022-07-29T01:55:34.880Z,95418.16
2022-07-29T01:58:05.741Z,95421.94
2022-07-29T02:00:33.932Z,95419.25
2022-07-29T02:03:09.806Z,95422.47
2022-07-29T02:05:39.947Z,95420.84
2022-07-29T02:08:09.579Z,95421.13
2022-07-29T02:10:40.863Z,95423.25
2022-07-29T02:13:10.421Z,95416.00
2022-07-29T02:15:38.285Z,95419.75
2022-07-29T02:18:13.860Z,95425.69
2022-07-29T02:20:46.386Z,95420.31
2022-07-29T02:23:15.403Z,95421.41
2022-07-29T02:25:43.840Z,95422.75
2022-07-29T02:28:15.044Z,95415.44
2022-07-29T02:30:44.291Z,95420.84
2022-07-29T02:33:15.278Z,95407.91
2022-07-29T02:35:44.620Z,95413.84
2022-07-29T02:38:15.998Z,95413.31
2022-07-29T02:40:43.778Z,95419.78
2022-07-29T02:43:11.780Z,95420.31
2022-07-29T02:45:39.147Z,95421.34
2022-07-29T02:48:16.812Z,95419.63
2022-07-29T02:50:53.154Z,95417.47
2022-07-29T02:53:24.917Z,95414.56
2022-07-29T02:56:02.192Z,95417.53
2022-07-29T02:58:34.304Z,95418.38
2022-07-29T03:01:09.114Z,95421.84
2022-07-29T03:03:38.752Z,95421.28
2022-07-29T03:06:08.281Z,95430.38
2022-07-29T03:08:36.362Z,95427.44
2022-07-29T03:11:05.102Z,95426.66
2022-07-29T03:13:32.150Z,95426.13
2022-07-29T03:16:00.305Z,95426.72
2022-07-29T03:18:27.959Z,95429.19
2022-07-29T03:20:54.863Z,95432.16
2022-07-29T03:23:22.866Z,95431.06
2022-07-29T03:25:50.653Z,95436.47
2022-07-29T03:28:17.201Z,95426.25
2022-07-29T03:30:46.274Z,95427.06
2022-07-29T03:33:13.719Z,95424.63
2022-07-29T03:35:40.570Z,95428.94
2022-07-29T03:38:07.112Z,95427.84
2022-07-29T03:40:50.433Z,95427.03
2022-07-29T03:43:19.180Z,95424.06
2022-07-29T03:45:50.695Z,95425.69
2022-07-29T03:48:21.869Z,95426.22
2022-07-29T03:50:48.978Z,95424.59
2022-07-29T03:53:15.603Z,95430.00
2022-07-29T03:55:47.670Z,95430.28
2022-07-29T03:58:15.309Z,95433.75
2022-07-29T04:00:43.862Z,95425.16
2022-07-29T04:03:11.910Z,95436.47
2022-07-29T04:05:38.574Z,95439.13
2022-07-29T04:08:05.509Z,95444.28
2022-07-29T04:10:34.185Z,95442.38
2022-07-29T04:13:22.349Z,95452.06
2022-07-29T04:15:48.923Z,95447.19
2022-07-29T04:18:15.474Z,95443.94
2022-07-29T04:20:42.074Z,95439.59
2022-07-29T04:23:08.826Z,95441.75
2022-07-29T04:25:38.324Z,95439.63
2022-07-29T04:28:05.651Z,95439.59
2022-07-29T04:30:33.638Z,95438.50
2022-07-29T04:33:01.624Z,95451.97
2022-07-29T04:35:29.365Z,95450.34
2022-07-29T04:37:55.953Z,95459.00
2022-07-29T04:40:22.560Z,95459.81
2022-07-29T04:42:49.454Z,95464.94
2022-07-29T04:45:16.218Z,95469.78
2022-07-29T04:47:43.160Z,95468.72
2022-07-29T04:50:10.599Z,95458.97
2022-07-29T04:52:37.341Z,95468.97
2022-07-29T04:55:05.319Z,95467.63
2022-07-29T04:57:31.819Z,95468.22
2022-07-29T04:59:58.603Z,95471.16
2022-07-29T05:02:25.190Z,95465.75
2022-07-29T05:04:51.725Z,95476.72
2022-07-29T05:07:18.233Z,95473.28
2022-07-29T05:09:45.189Z,95483.16
2022-07-29T05:12:11.678Z,95484.19
2022-07-29T05:14:38.187Z,95486.09
2022-07-29T05:17:04.680Z,95484.72
2022-07-29T05:19:31.300Z,95489.56
2022-07-29T05:21:57.827Z,95494.97
2022-07-29T05:24:24.506Z,95484.72
2022-07-29T05:26:51.024Z,95493.91
2022-07-29T05:29:44.107Z,95486.38
2022-07-29T05:32:04.720Z,95494.44
2022-07-29T05:34:31.860Z,95496.66
2022-07-29T05:36:58.722Z,95492.41
2022-07-29T05:39:48.770Z,95494.16
2022-07-29T05:42:11.827Z,95495.81
2022-07-29T05:44:39.248Z,95494.09
2022-07-29T05:47:06.115Z,95500.69
2022-07-29T05:49:33.062Z,95502.56
2022-07-29T05:51:59.607Z,95504.22
2022-07-29T05:54:26.146Z,95510.91
2022-07-29T05:56:52.639Z,95513.41
2022-07-29T05:59:19.210Z,95515.50
2022-07-29T06:01:45.756Z,95515.19
2022-07-29T06:04:12.460Z,95519.03
2022-07-29T06:06:39.124Z,95515.91
2022-07-29T06:09:12.758Z,95509.81
2022-07-29T06:11:40.458Z,95517.66
2022-07-29T06:14:06.967Z,95518.63
2022-07-29T06:16:33.478Z,95517.66
2022-07-29T06:19:00.050Z,95522.19
2022-07-29T06:21:26.567Z,95521.03
2022-07-29T06:23:53.085Z,95513.91
2022-07-29T06:26:19.568Z,95517.31
2022-07-29T06:28:59.075Z,95531.81
2022-07-29T06:31:25.635Z,95535.22
2022-07-29T06:33:52.183Z,95536.59
2022-07-29T06:36:21.357Z,95534.34
2022-07-29T06:38:51.570Z,95536.94
2022-07-29T06:41:18.868Z,95532.00
2022-07-29T06:43:52.182Z,95535.47
2022-07-29T06:46:22.523Z,95534.66
2022-07-29T06:48:49.404Z,95544.16
2022-07-29T06:51:16.308Z,95537.88
2022-07-29T06:53:59.870Z,95537.56
2022-07-29T06:56:38.429Z,95534.63
2022-07-29T06:59:10.356Z,95531.63
2022-07-29T07:01:42.498Z,95536.88
2022-07-29T07:04:10.555Z,95529.47
2022-07-29T07:06:37.396Z,95533.22
2022-07-29T07:09:04.633Z,95536.63
2022-07-29T07:11:31.410Z,95540.47
2022-07-29T07:14:02.676Z,95547.19
2022-07-29T07:16:30.352Z,95549.31
2022-07-29T07:18:56.900Z,95541.50
2022-07-29T07:21:23.378Z,95536.72
2022-07-29T07:23:49.881Z,95537.78
2022-07-29T07:26:16.480Z,95533.00
2022-07-29T07:28:43.058Z,95542.44
2022-07-29T07:31:09.614Z,95537.91
2022-07-29T07:33:36.344Z,95546.81
2022-07-29T07:36:03.614Z,95556.25
2022-07-29T07:38:30.171Z,95560.56
2022-07-29T07:40:56.658Z,95556.00
2022-07-29T07:43:23.162Z,95555.72
2022-07-29T07:45:49.744Z,95552.47
2022-07-29T07:48:16.284Z,95562.69
2022-07-29T07:50:42.845Z,95564.88
2022-07-29T07:53:09.425Z,95566.78
2022-07-29T07:56:07.967Z,95575.94
2022-07-29T07:58:27.911Z,95577.28
2022-07-29T08:01:04.181Z,95571.38
2022-07-29T08:03:30.792Z,95564.84
2022-07-29T08:05:57.355Z,95564.34
2022-07-29T08:08:23.847Z,95563.25
2022-07-29T08:10:50.340Z,95557.28
2022-07-29T08:13:16.920Z,95566.69
2022-07-29T08:15:43.619Z,95563.94
2022-07-29T08:18:10.177Z,95569.47
2022-07-29T08:20:37.786Z,95560.22
2022-07-29T08:23:05.426Z,95572.34
2022-07-29T08:25:32.372Z,95572.88
2022-07-29T08:28:01.266Z,95570.00
2022-07-29T08:30:27.822Z,95569.75
2022-07-29T08:32:55.659Z,95573.81
2022-07-29T08:35:24.303Z,95575.94
2022-07-29T08:37:51.302Z,95580.19
2022-07-29T08:40:18.003Z,95581.41
2022-07-29T08:42:45.515Z,95571.38
2022-07-29T08:45:12.091Z,95568.50
2022-07-29T08:47:39.985Z,95573.94
2022-07-29T08:50:08.085Z,95575.88
2022-07-29T08:52:39.466Z,95575.06
2022-07-29T08:55:08.438Z,95570.47
2022-07-29T08:57:37.272Z,95571.25
2022-07-29T09:00:11.788Z,95574.53
2022-07-29T09:02:48.659Z,95579.16
2022-07-29T09:05:15.918Z,95582.13
2022-07-29T09:07:43.006Z,95578.06
2022-07-29T09:10:09.991Z,95585.03
2022-07-29T09:12:38.109Z,95587.50
2022-07-29T09:15:05.680Z,95594.22
2022-07-29T09:17:50.005Z,95588.50
2022-07-29T09:20:19.753Z,95587.38
2022-07-29T09:22:46.862Z,95591.41
2022-07-29T09:25:13.933Z,95595.59
2022-07-29T09:27:40.637Z,95596.09
2022-07-29T09:30:10.218Z,95593.97
2022-07-29T09:32:56.971Z,95594.69
2022-07-29T09:35:25.841Z,95584.19
2022-07-29T09:37:53.246Z,95583.59
2022-07-29T09:40:23.251Z,95591.22
2022-07-29T09:42:50.727Z,95595.47
2022-07-29T09:45:34.222Z,95592.22
2022-07-29T09:48:18.011Z,95594.94
2022-07-29T09:50:46.388Z,95585.22
2022-07-29T09:53:13.072Z,95591.69
2022-07-29T09:55:52.236Z,95588.75
2022-07-29T09:58:23.330Z,95589.00
2022-07-29T10:00:51.853Z,95590.38
2022-07-29T10:03:19.491Z,95599.28
2022-07-29T10:05:46.878Z,95594.41
2022-07-29T10:08:13.842Z,95600.56
2022-07-29T10:10:42.748Z,95592.47
2022-07-29T10:13:16.603Z,95596.19
2022-07-29T10:15:44.905Z,95599.69
2022-07-29T10:18:15.541Z,95600.16
2022-07-29T10:20:42.447Z,95601.78
2022-07-29T10:23:10.442Z,95606.44
2022-07-29T10:25:37.189Z,95601.84
2022-07-29T10:28:03.853Z,95598.47
2022-07-29T10:30:30.418Z,95604.03
2022-07-29T10:33:19.737Z,95611.03
2022-07-29T10:36:11.143Z,95613.97
2022-07-29T10:38:55.782Z,95611.81
2022-07-29T10:41:44.366Z,95617.72
2022-07-29T10:44:19.485Z,95616.06
2022-07-29T10:46:50.830Z,95606.41
2022-07-29T10:49:19.454Z,95605.34
2022-07-29T10:51:55.156Z,95608.03
2022-07-29T10:54:36.949Z,95619.94
2022-07-29T10:57:14.073Z,95617.50
2022-07-29T10:59:46.014Z,95625.31
2022-07-29T11:02:41.728Z,95632.88
2022-07-29T11:05:18.115Z,95642.63
2022-07-29T11:08:16.687Z,95651.75
2022-07-29T11:10:50.902Z,95658.28
2022-07-29T11:13:46.537Z,95675.97
2022-07-29T11:19:14.254Z,95713.03
2022-07-29T11:21:53.901Z,95713.75
2022-07-29T11:24:30.122Z,95742.31
2022-07-29T11:27:17.856Z,95749.72
2022-07-29T11:32:48.709Z,95760.81
2022-07-29T11:38:23.631Z,95770.94
2022-07-29T11:41:17.890Z,95777.72
2022-07-29T11:43:50.700Z,95773.28
2022-07-29T11:46:39.141Z,95777.97
2022-07-29T11:49:09.682Z,95768.50
2022-07-29T11:51:38.188Z,95778.53
2022-07-29T11:54:27.568Z,95770.72
2022-07-29T11:56:54.662Z,95774.22
2022-07-29T11:59:22.535Z,95778.75
2022-07-29T12:02:18.493Z,95773.03
2022-07-29T12:04:52.236Z,95775.94
2022-07-29T12:07:03.750Z,95770.81
2022-07-29T12:07:26.789Z,95782.84
2022-07-29T12:10:06.372Z,95784.47
2022-07-29T12:12:33.692Z,95789.56
2022-07-29T12:15:16.056Z,95789.38
2022-07-29T12:17:42.792Z,95783.66
2022-07-29T12:20:09.802Z,95782.50
2022-07-29T12:22:41.518Z,95784.31
2022-07-29T12:28:02.751Z,95793.09
2022-07-29T12:30:55.539Z,95788.59
2022-07-29T12:33:26.517Z,95795.34
2022-07-29T12:36:06.876Z,95792.88
2022-07-29T12:38:36.120Z,95786.34
2022-07-29T12:41:04.431Z,95778.56
2022-07-29T12:43:31.790Z,95787.66
2022-07-29T12:45:58.525Z,95789.09
2022-07-29T12:48:39.954Z,95785.38
2022-07-29T12:51:08.574Z,95786.28
2022-07-29T12:53:36.769Z,95788.84
2022-07-29T12:56:15.511Z,95787.72
2022-07-29T12:58:51.880Z,95795.97
2022-07-29T13:01:19.501Z,95792.13
2022-07-29T13:03:56.673Z,95797.75
2022-07-29T13:06:50.907Z,95797.53
2022-07-29T13:09:18.876Z,95800.34
2022-07-29T13:11:51.659Z,95792.41
2022-07-29T13:14:32.804Z,95795.72
2022-07-29T13:17:09.726Z,95806.13
2022-07-29T13:19:54.261Z,95796.25
2022-07-29T13:22:25.073Z,95800.28
2022-07-29T13:24:56.395Z,95797.31
2022-07-29T13:27:27.886Z,95804.66
2022-07-29T13:29:56.532Z,95795.75
2022-07-29T13:32:28.377Z,95798.69
2022-07-29T13:35:00.148Z,95812.41
2022-07-29T13:37:27.330Z,95808.09
2022-07-29T13:39:53.849Z,95815.91
2022-07-29T13:42:22.714Z,95804.16
2022-07-29T13:44:49.392Z,95813.13
2022-07-29T13:47:16.095Z,95799.59
2022-07-29T13:49:42.591Z,95801.09
2022-07-29T13:52:09.099Z,95814.75
2022-07-29T13:54:40.127Z,95805.75
2022-07-29T13:57:09.186Z,95802.50
2022-07-29T13:59:35.679Z,95800.47
2022-07-29T14:02:02.202Z,95803.34
2022-07-29T14:04:28.777Z,95802.16
2022-07-29T14:06:55.471Z,95786.06
2022-07-29T14:09:21.962Z,95784.19
2022-07-29T14:11:48.591Z,95775.44
2022-07-29T14:14:15.062Z,95770.31
2022-07-29T14:16:47.656Z,95774.81
2022-07-29T14:19:17.133Z,95768.94
2022-07-29T14:21:43.627Z,95762.22
2022-07-29T14:24:17.692Z,95758.16
2022-07-29T14:26:48.302Z,95753.41
2022-07-29T14:29:15.624Z,95761.13
2022-07-29T14:31:42.481Z,95754.00
2022-07-29T14:34:09.051Z,95758.06
2022-07-29T14:36:35.553Z,95752.75
2022-07-29T14:39:02.046Z,95748.78
2022-07-29T14:41:28.541Z,95749.38
2022-07-29T14:43:55.264Z,95753.84
2022-07-29T14:46:21.876Z,95749.66
2022-07-29T14:48:48.446Z,95753.63
2022-07-29T14:51:14.992Z,95746.19
2022-07-29T14:53:41.497Z,95749.84
2022-07-29T14:56:34.245Z,95740.69
2022-07-29T14:58:54.515Z,95730.50
2022-07-29T15:01:21.057Z,95730.63
2022-07-29T15:03:47.578Z,95734.16
2022-07-29T15:06:14.088Z,95734.28
2022-07-29T15:08:40.816Z,95732.66
2022-07-29T15:11:07.349Z,95732.38
2022-07-29T15:13:34.581Z,95738.16
2022-07-29T15:16:01.063Z,95736.03
2022-07-29T15:18:27.752Z,95729.97
2022-07-29T15:20:54.251Z,95726.63
2022-07-29T15:23:20.799Z,95720.16
2022-07-29T15:25:47.592Z,95717.97
2022-07-29T15:28:14.177Z,95717.44
2022-07-29T15:30:40.690Z,95719.81
2022-07-29T15:33:08.703Z,95719.56
2022-07-29T15:35:40.278Z,95723.34
2022-07-29T15:38:08.106Z,95712.78
2022-07-29T15:40:38.037Z,95713.56
2022-07-29T15:43:05.558Z,95717.00
2022-07-29T15:45:40.537Z,95717.34
2022-07-29T15:48:09.904Z,95712.78
2022-07-29T15:50:41.329Z,95711.94
2022-07-29T15:53:07.868Z,95720.59
2022-07-29T15:55:34.407Z,95716.03
2022-07-29T15:58:00.996Z,95715.50
2022-07-29T16:00:27.861Z,95718.47
2022-07-29T16:02:54.380Z,95714.44
2022-07-29T16:05:20.916Z,95711.69
2022-07-29T16:07:47.432Z,95718.41
2022-07-29T16:10:14.059Z,95716.53
2022-07-29T16:12:40.620Z,95713.84
2022-07-29T16:15:09.872Z,95715.69
2022-07-29T16:17:38.109Z,95712.69
2022-07-29T16:20:06.025Z,95711.59
2022-07-29T16:22:32.549Z,95710.06
2022-07-29T16:24:59.077Z,95711.09
2022-07-29T16:27:25.674Z,95717.59
2022-07-29T16:30:00.802Z,95715.44
2022-07-29T16:32:28.479Z,95719.22
2022-07-29T16:34:54.967Z,95713.28
2022-07-29T16:37:21.530Z,95711.91
2022-07-29T16:39:48.012Z,95709.53
2022-07-29T16:42:36.709Z,95706.25
2022-07-29T16:45:01.592Z,95707.34
2022-07-29T16:47:29.335Z,95706.34
2022-07-29T16:49:56.345Z,95707.44
2022-07-29T16:52:22.852Z,95706.63
2022-07-29T16:54:49.595Z,95710.66
2022-07-29T16:57:16.434Z,95716.59
2022-07-29T16:59:43.774Z,95714.97
2022-07-29T17:02:10.359Z,95710.91
2022-07-29T17:04:36.992Z,95709.56
2022-07-29T17:07:03.626Z,95711.75
2022-07-29T17:09:30.132Z,95707.94
2022-07-29T17:11:56.672Z,95710.13
2022-07-29T17:14:24.432Z,95709.03
2022-07-29T17:17:01.208Z,95717.16
2022-07-29T17:19:30.986Z,95715.53
2022-07-29T17:22:05.035Z,95709.56
2022-07-29T17:24:35.859Z,95716.31
2022-07-29T17:27:02.456Z,95717.31
2022-07-29T17:29:28.954Z,95716.47
2022-07-29T17:31:55.433Z,95722.50
2022-07-29T17:34:21.920Z,95718.34
2022-07-29T17:36:48.444Z,95718.41
2022-07-29T17:39:14.937Z,95708.81
2022-07-29T17:41:41.435Z,95716.53
2022-07-29T17:44:08.165Z,95712.88
2022-07-29T17:46:35.106Z,95719.81
2022-07-29T17:49:02.041Z,95714.50
2022-07-29T17:51:29.486Z,95719.00
2022-07-29T17:53:55.978Z,95718.53
2022-07-29T17:56:22.496Z,95722.91
2022-07-29T17:58:49.036Z,95726.50
2022-07-29T18:01:15.743Z,95719.34
2022-07-29T18:03:42.912Z,95719.53
2022-07-29T18:06:10.308Z,95720.44
2022-07-29T18:08:37.451Z,95720.72
2022-07-29T18:11:04.019Z,95717.25
2022-07-29T18:13:30.788Z,95721.72
2022-07-29T18:16:00.294Z,95730.22
2022-07-29T18:18:27.367Z,95725.97
2022-07-29T18:20:53.978Z,95737.25
2022-07-29T18:23:20.490Z,95735.97
2022-07-29T18:25:47.038Z,95739.81
2022-07-29T18:28:13.980Z,95740.34
2022-07-29T18:30:40.509Z,95741.41
2022-07-29T18:33:23.008Z,95739.53
2022-07-29T18:35:52.447Z,95742.53
2022-07-29T18:38:36.645Z,95744.72
2022-07-29T18:41:03.130Z,95749.00
2022-07-29T18:43:29.623Z,95751.16
2022-07-29T18:45:56.158Z,95748.47
2022-07-29T18:48:23.705Z,95745.75
2022-07-29T18:50:50.229Z,95737.66
2022-07-29T18:53:16.802Z,95747.91
2022-07-29T18:55:43.409Z,95737.09
2022-07-29T18:58:09.921Z,95739.81
2022-07-29T19:00:36.410Z,95747.09
2022-07-29T19:03:03.104Z,95742.91
2022-07-29T19:05:29.819Z,95753.19
2022-07-29T19:07:56.296Z,95751.00
2022-07-29T19:10:22.884Z,95756.94
2022-07-29T19:12:49.527Z,95756.88
2022-07-29T19:15:20.361Z,95760.91
2022-07-29T19:17:48.064Z,95773.59
2022-07-29T19:20:15.097Z,95767.88
2022-07-29T19:22:41.588Z,95768.88
2022-07-29T19:25:08.314Z,95776.69
2022-07-29T19:27:34.803Z,95777.22
2022-07-29T19:30:01.291Z,95777.72
2022-07-29T19:32:27.814Z,95779.31
2022-07-29T19:34:54.314Z,95785.22
2022-07-29T19:37:20.851Z,95790.06
2022-07-29T19:39:47.372Z,95789.97
2022-07-29T19:42:13.886Z,95801.28
2022-07-29T19:44:40.373Z,95808.28
2022-07-29T19:47:06.883Z,95808.97
2022-07-29T19:49:33.491Z,95818.09
2022-07-29T19:51:59.980Z,95813.16
2022-07-29T19:54:26.492Z,95817.88
2022-07-29T19:56:53.027Z,95818.34
2022-07-29T19:59:19.532Z,95830.16
2022-07-29T20:01:51.161Z,95833.22
2022-07-29T20:04:17.727Z,95833.16
2022-07-29T20:06:44.287Z,95836.41
2022-07-29T20:09:17.729Z,95842.06
2022-07-29T20:11:47.233Z,95834.75
2022-07-29T20:14:13.817Z,95839.59
2022-07-29T20:16:40.314Z,95841.75
2022-07-29T20:19:06.848Z,95844.97
2022-07-29T20:21:33.343Z,95843.38
2022-07-29T20:23:59.869Z,95839.59
2022-07-29T20:26:26.432Z,95833.69
2022-07-29T20:28:52.919Z,95842.75
2022-07-29T20:31:19.458Z,95839.94
2022-07-29T20:33:46.244Z,95838.34
2022-07-29T20:36:12.920Z,95840.63
2022-07-29T20:38:39.461Z,95840.34
2022-07-29T20:41:06.548Z,95838.72
2022-07-29T20:43:38.859Z,95837.63
2022-07-29T20:46:05.952Z,95832.53
2022-07-29T20:48:32.533Z,95836.09
2022-07-29T20:50:59.127Z,95827.78
2022-07-29T20:53:25.643Z,95825.34
2022-07-29T20:55:52.118Z,95829.09
2022-07-29T20:58:18.666Z,95825.66
2022-07-29T21:00:46.170Z,95826.41
2022-07-29T21:03:12.816Z,95823.13
2022-07-29T21:05:39.438Z,95833.31
2022-07-29T21:08:10.031Z,95824.00
2022-07-29T21:10:36.655Z,95831.22
2022-07-29T21:13:03.256Z,95825.34
2022-07-29T21:15:30.373Z,95833.34
2022-07-29T21:17:56.927Z,95820.47
2022-07-29T21:20:23.475Z,95830.63
2022-07-29T21:22:50.047Z,95827.06
2022-07-29T21:25:16.551Z,95830.03
2022-07-29T21:27:43.067Z,95831.56
2022-07-29T21:30:09.830Z,95827.00
2022-07-29T21:32:36.642Z,95824.44
2022-07-29T21:35:03.601Z,95825.72
2022-07-29T21:37:41.847Z,95825.94
2022-07-29T21:40:09.024Z,95824.47
2022-07-29T21:42:35.510Z,95838.16
2022-07-29T21:45:02.016Z,95836.38
2022-07-29T21:47:28.644Z,95829.69
2022-07-29T21:49:55.186Z,95836.38
2022-07-29T21:52:21.688Z,95835.22
2022-07-29T21:54:48.200Z,95833.69
2022-07-29T21:57:16.281Z,95838.22
2022-07-29T21:59:42.770Z,95839.16
2022-07-29T22:02:09.356Z,95836.19
2022-07-29T22:04:36.125Z,95845.63
2022-07-29T22:07:03.010Z,95843.69
2022-07-29T22:09:30.017Z,95842.31
2022-07-29T22:11:56.544Z,95829.47
2022-07-29T22:14:23.029Z,95844.34
2022-07-29T22:16:49.656Z,95844.34
2022-07-29T22:19:16.243Z,95840.88
2022-07-29T22:21:42.807Z,95852.34
2022-07-29T22:24:09.639Z,95853.31
2022-07-29T22:26:36.159Z,95855.03
2022-07-29T22:29:02.661Z,95852.59
2022-07-29T22:31:29.179Z,95860.16
2022-07-29T22:33:55.759Z,95855.91
2022-07-29T22:36:22.251Z,95862.28
2022-07-29T22:38:51.881Z,95863.91
2022-07-29T22:41:18.662Z,95859.91
2022-07-29T22:43:45.198Z,95864.13
2022-07-29T22:46:11.693Z,95863.25
2022-07-29T22:48:38.616Z,95863.75
2022-07-29T22:51:05.202Z,95861.63
2022-07-29T22:53:32.546Z,95867.72
2022-07-29T22:55:59.031Z,95865.69
2022-07-29T22:58:25.567Z,95877.25
2022-07-29T23:00:52.156Z,95875.88
2022-07-29T23:03:18.743Z,95872.69
2022-07-29T23:05:45.316Z,95879.59
2022-07-29T23:08:11.802Z,95882.38
2022-07-29T23:10:38.308Z,95880.50
2022-07-29T23:13:04.781Z,95882.28
2022-07-29T23:15:31.444Z,95880.66
2022-07-29T23:17:57.960Z,95881.50
2022-07-29T23:20:24.536Z,95882.59
2022-07-29T23:22:51.252Z,95886.22
2022-07-29T23:25:17.838Z,95883.44
2022-07-29T23:27:44.364Z,95884.06
2022-07-29T23:30:11.220Z,95887.84
2022-07-29T23:32:37.695Z,95887.59
2022-07-29T23:35:04.915Z,95882.22
2022-07-29T23:37:31.386Z,95880.50
2022-07-29T23:39:58.052Z,95887.97
2022-07-29T23:42:24.691Z,95883.66
2022-07-29T23:44:51.511Z,95883.66
2022-07-29T23:47:18.023Z,95880.50
2022-07-29T23:49:44.576Z,95877.56
2022-07-29T23:52:11.071Z,95887.00
2022-07-29T23:54:37.850Z,95882.13
2022-07-29T23:57:04.686Z,95885.88
2022-07-29T23:59:31.199Z,95887.50
